Time;durP1;ratioP1;P1;durP2;ratioP2;P2;SDS_P1;SDS_P2;PMS_P1;PMS_P2;Temp;Humidity;BMP_temperature;BMP_pressure;BME280_temperature;BME280_humidity;BME280_pressure;Samples;Min_cycle;Max_cycle;Signal;HPM_P1;HPM_P2
2023/04/17 00:03:15;;;;;;;37.65;28.25;;;10.00;99.90;;;;;;7314671;32;20150;-55
2023/04/17 00:07:21;;;;;;;44.95;28.83;;;9.90;99.90;;;;;;7308707;32;20438;-55
2023/04/17 00:11:22;;;;;;;42.08;27.70;;;10.00;99.90;;;;;;7308309;32;20218;-55
2023/04/17 00:15:24;;;;;;;42.62;29.73;;;10.00;99.90;;;;;;7313490;32;20231;-55
2023/04/17 00:19:26;;;;;;;42.55;29.70;;;10.00;99.90;;;;;;7314440;32;20210;-55
2023/04/17 00:23:28;;;;;;;41.78;30.35;;;10.00;99.90;;;;;;7307147;32;20099;-55
2023/04/17 00:27:29;;;;;;;38.78;28.92;;;9.90;99.90;;;;;;7310389;32;20166;-55
2023/04/17 00:31:31;;;;;;;45.58;30.70;;;10.00;99.90;;;;;;7316401;32;20265;-55
2023/04/17 00:35:33;;;;;;;45.22;29.95;;;10.00;99.90;;;;;;7309442;32;20096;-55
2023/04/17 00:39:34;;;;;;;38.38;29.75;;;9.90;99.90;;;;;;7314743;32;20131;-55
2023/04/17 00:43:37;;;;;;;42.75;29.67;;;9.90;99.90;;;;;;7302016;32;20096;-55
2023/04/17 00:47:39;;;;;;;48.45;32.05;;;9.90;99.90;;;;;;7313694;32;20202;-54
2023/04/17 00:51:41;;;;;;;45.72;31.15;;;10.00;99.90;;;;;;7328791;32;20130;-55
2023/04/17 00:55:46;;;;;;;44.08;31.27;;;9.90;99.90;;;;;;7318766;32;20130;-55
2023/04/17 00:59:48;;;;;;;46.78;31.73;;;9.90;99.90;;;;;;7309672;32;20482;-55
2023/04/17 01:03:49;;;;;;;49.47;32.30;;;9.90;99.90;;;;;;7306171;32;20149;-55
2023/04/17 01:07:53;;;;;;;43.80;30.90;;;9.90;99.90;;;;;;7306777;32;20316;-55
2023/04/17 01:12:18;;;;;;;48.25;33.10;;;9.90;99.90;;;;;;7318166;32;20361;-55
2023/04/17 01:16:20;;;;;;;45.97;32.85;;;9.80;99.90;;;;;;7310918;32;20223;-55
2023/04/17 01:20:22;;;;;;;45.65;33.03;;;9.80;99.90;;;;;;7305444;32;20233;-55
2023/04/17 01:24:23;;;;;;;50.28;33.97;;;9.90;99.90;;;;;;7314432;32;20197;-55
2023/04/17 01:28:25;;;;;;;44.13;33.20;;;9.80;99.90;;;;;;7308674;32;20226;-55
2023/04/17 01:32:27;;;;;;;46.72;33.15;;;9.90;99.90;;;;;;7296750;32;20212;-55
2023/04/17 01:36:28;;;;;;;49.78;33.22;;;9.90;99.90;;;;;;7309821;32;20103;-55
2023/04/17 01:40:30;;;;;;;54.15;35.15;;;10.00;99.90;;;;;;7315368;32;20096;-56
2023/04/17 01:44:32;;;;;;;43.58;32.03;;;9.80;99.90;;;;;;7302902;32;20206;-55
2023/04/17 01:48:34;;;;;;;44.70;32.05;;;9.90;99.90;;;;;;7304013;32;20564;-56
2023/04/17 01:52:38;;;;;;;45.15;33.28;;;9.80;99.90;;;;;;7317681;32;20247;-55
2023/04/17 01:56:41;;;;;;;45.78;32.45;;;9.80;99.90;;;;;;7307148;32;20375;-55
2023/04/17 02:00:45;;;;;;;47.30;33.55;;;9.90;99.90;;;;;;7307323;32;20126;-56
2023/04/17 02:04:47;;;;;;;49.92;31.73;;;9.80;99.90;;;;;;7312951;32;20137;-55
2023/04/17 02:08:49;;;;;;;48.22;31.98;;;9.80;99.90;;;;;;7309914;32;20117;-55
2023/04/17 02:12:51;;;;;;;49.10;33.03;;;9.80;99.90;;;;;;7315193;32;20157;-56
2023/04/17 02:16:52;;;;;;;47.80;33.63;;;9.70;99.90;;;;;;7308795;32;20152;-55
2023/04/17 02:20:54;;;;;;;49.72;34.03;;;9.80;99.90;;;;;;7303009;32;20202;-55
2023/04/17 02:24:56;;;;;;;51.30;34.40;;;9.70;99.90;;;;;;7311547;32;20587;-55
2023/04/17 02:28:57;;;;;;;50.03;35.28;;;9.70;99.90;;;;;;7311228;32;20256;-55
2023/04/17 02:32:59;;;;;;;46.83;34.17;;;9.70;99.90;;;;;;7312397;32;20221;-55
2023/04/17 02:37:01;;;;;;;51.20;36.40;;;9.70;99.90;;;;;;7315207;32;20761;-55
2023/04/17 02:41:04;;;;;;;48.53;36.00;;;9.60;99.90;;;;;;7310655;32;22296;-55
2023/04/17 02:45:06;;;;;;;50.90;36.63;;;9.50;99.90;;;;;;7315622;32;20103;-55
2023/04/17 02:49:08;;;;;;;50.75;36.10;;;9.50;99.90;;;;;;7317007;32;20760;-55
2023/04/17 02:53:10;;;;;;;56.30;36.45;;;9.50;99.90;;;;;;7310119;32;20194;-55
2023/04/17 02:57:12;;;;;;;52.03;37.05;;;9.50;99.90;;;;;;7322523;32;20282;-55
2023/04/17 03:01:14;;;;;;;48.92;36.70;;;9.50;99.90;;;;;;7312342;32;20127;-55
2023/04/17 03:05:17;;;;;;;53.42;37.58;;;9.50;99.90;;;;;;7308308;32;20115;-55
2023/04/17 03:09:21;;;;;;;54.08;38.70;;;9.50;99.90;;;;;;7311372;32;20100;-55
2023/04/17 03:13:22;;;;;;;58.97;39.67;;;9.40;99.90;;;;;;7306378;32;20142;-55
2023/04/17 03:17:24;;;;;;;51.10;36.83;;;9.50;99.90;;;;;;7312847;32;20115;-55
2023/04/17 03:21:26;;;;;;;53.90;37.83;;;9.40;99.90;;;;;;7308377;32;20099;-55
2023/04/17 03:25:28;;;;;;;55.75;37.97;;;9.40;99.90;;;;;;7316237;32;20099;-55
2023/04/17 03:29:30;;;;;;;53.85;38.72;;;9.40;99.90;;;;;;7314913;32;20111;-55
2023/04/17 03:33:31;;;;;;;55.22;37.75;;;9.40;99.90;;;;;;7306276;32;20187;-55
2023/04/17 03:37:33;;;;;;;56.10;38.88;;;9.40;99.90;;;;;;7308965;32;20779;-56
2023/04/17 03:41:37;;;;;;;52.42;38.25;;;9.30;99.90;;;;;;7310864;32;20773;-55
2023/04/17 03:45:39;;;;;;;55.80;37.45;;;9.30;99.90;;;;;;7302913;32;20089;-56
2023/04/17 03:49:40;;;;;;;51.70;36.83;;;9.20;99.90;;;;;;7304640;32;20296;-55
2023/04/17 03:53:42;;;;;;;53.38;37.65;;;9.20;99.90;;;;;;7317102;32;20790;-55
2023/04/17 03:57:44;;;;;;;60.03;38.28;;;9.10;99.90;;;;;;7318355;32;20107;-55
2023/04/17 04:01:45;;;;;;;55.75;37.63;;;9.10;99.90;;;;;;7308198;32;20168;-55
2023/04/17 04:05:47;;;;;;;57.95;38.78;;;9.10;99.90;;;;;;7311011;32;20544;-55
2023/04/17 04:09:49;;;;;;;60.28;39.13;;;9.00;99.90;;;;;;7313325;32;20146;-55
2023/04/17 04:13:51;;;;;;;57.03;39.55;;;9.00;99.90;;;;;;7312858;32;20115;-55
2023/04/17 04:17:52;;;;;;;57.35;39.35;;;8.90;99.90;;;;;;7308252;32;20271;-55
2023/04/17 04:21:54;;;;;;;50.63;38.05;;;9.00;99.90;;;;;;7304035;32;20353;-55
2023/04/17 04:25:56;;;;;;;55.72;40.00;;;9.00;99.90;;;;;;7302801;32;20156;-56
2023/04/17 04:30:01;;;;;;;57.97;38.65;;;8.90;99.90;;;;;;7308705;32;20186;-55
2023/04/17 04:34:04;;;;;;;56.42;37.92;;;8.90;99.90;;;;;;7306982;32;22170;-55
2023/04/17 04:38:06;;;;;;;56.92;39.30;;;8.90;99.90;;;;;;7312029;32;20136;-55
2023/04/17 04:42:10;;;;;;;61.15;39.25;;;8.90;99.90;;;;;;7305439;32;20763;-56
2023/04/17 04:46:11;;;;;;;58.70;39.92;;;8.90;99.90;;;;;;7303782;32;20103;-56
2023/04/17 04:50:13;;;;;;;56.97;40.28;;;8.90;99.90;;;;;;7297143;32;20240;-57
2023/04/17 04:54:15;;;;;;;57.78;40.60;;;9.00;99.90;;;;;;7300186;32;20222;-57
2023/04/17 04:58:16;;;;;;;63.28;42.05;;;9.00;99.90;;;;;;7305436;32;20187;-56
2023/04/17 05:02:18;;;;;;;60.50;42.47;;;9.00;99.90;;;;;;7309615;32;20104;-56
2023/04/17 05:06:20;;;;;;;63.20;43.10;;;8.90;99.90;;;;;;7297504;32;20103;-57
2023/04/17 05:10:22;;;;;;;63.67;42.17;;;8.90;99.90;;;;;;7302538;32;20312;-57
2023/04/17 05:14:23;;;;;;;62.30;41.85;;;8.90;99.90;;;;;;7303005;32;20132;-57
2023/04/17 05:18:25;;;;;;;60.63;42.33;;;9.00;99.90;;;;;;7298649;32;20772;-57
2023/04/17 05:22:27;;;;;;;63.38;42.22;;;9.00;99.90;;;;;;7296141;32;20799;-57
2023/04/17 05:26:28;;;;;;;63.58;41.10;;;9.00;99.90;;;;;;7301630;32;20314;-57
2023/04/17 05:30:30;;;;;;;61.40;41.30;;;9.00;99.90;;;;;;7296188;32;20100;-57
2023/04/17 05:34:32;;;;;;;63.35;42.95;;;9.10;99.90;;;;;;7306015;32;20415;-56
2023/04/17 05:38:34;;;;;;;63.17;42.38;;;9.10;99.90;;;;;;7303500;32;20344;-56
2023/04/17 05:42:35;;;;;;;69.97;44.45;;;9.10;99.90;;;;;;7300680;32;20255;-57
2023/04/17 05:46:37;;;;;;;65.90;44.53;;;9.10;99.90;;;;;;7300912;32;20215;-57
2023/04/17 05:50:39;;;;;;;61.95;43.25;;;9.10;99.90;;;;;;7298190;32;20149;-56
2023/04/17 05:54:40;;;;;;;64.40;44.15;;;9.10;99.90;;;;;;7297863;32;20100;-57
2023/04/17 05:58:42;;;;;;;58.45;43.20;;;9.20;99.90;;;;;;7302072;32;20095;-56
2023/04/17 06:02:44;;;;;;;59.63;42.33;;;9.20;99.90;;;;;;7298829;32;20263;-56
2023/04/17 06:06:46;;;;;;;62.13;42.70;;;9.20;99.90;;;;;;7303648;32;20613;-56
2023/04/17 06:10:49;;;;;;;65.78;43.67;;;9.30;99.90;;;;;;7300180;32;20476;-56
2023/04/17 06:14:50;;;;;;;56.35;40.42;;;9.30;99.90;;;;;;7299641;32;20113;-56
2023/04/17 06:18:52;;;;;;;50.50;37.25;;;9.40;99.90;;;;;;7302406;32;20755;-56
2023/04/17 06:22:54;;;;;;;47.58;34.92;;;9.50;99.90;;;;;;7300975;32;20197;-57
2023/04/17 06:26:55;;;;;;;46.70;34.38;;;9.60;99.90;;;;;;7296196;32;20186;-56
2023/04/17 06:30:57;;;;;;;50.53;34.20;;;9.70;99.90;;;;;;7302335;32;20430;-56
2023/04/17 06:34:59;;;;;;;42.50;33.25;;;9.80;99.90;;;;;;7302010;32;20261;-56
2023/04/17 06:39:00;;;;;;;40.28;30.62;;;9.80;99.90;;;;;;7301497;32;20130;-56
2023/04/17 06:43:02;;;;;;;42.25;31.98;;;9.90;99.90;;;;;;7302146;32;20119;-57
2023/04/17 06:47:04;;;;;;;38.65;30.88;;;9.90;99.90;;;;;;7302531;32;20209;-57
2023/04/17 06:51:06;;;;;;;40.47;30.35;;;10.00;99.90;;;;;;7298849;32;20128;-56
2023/04/17 06:55:08;;;;;;;38.05;28.25;;;9.90;99.90;;;;;;7308914;32;20186;-57
2023/04/17 06:59:10;;;;;;;41.47;29.83;;;10.00;99.90;;;;;;7309030;32;20121;-57
2023/04/17 07:03:13;;;;;;;40.83;30.00;;;10.10;99.90;;;;;;7307031;32;20135;-56
2023/04/17 07:07:16;;;;;;;36.78;29.70;;;10.00;99.90;;;;;;7300683;32;20096;-57
2023/04/17 07:11:17;;;;;;;40.33;31.67;;;10.10;99.90;;;;;;7309690;32;20112;-57
2023/04/17 07:15:19;;;;;;;40.53;32.10;;;10.10;99.90;;;;;;7309890;32;20126;-56
2023/04/17 07:19:21;;;;;;;41.35;30.33;;;10.10;99.90;;;;;;7303144;32;20484;-57
2023/04/17 07:23:23;;;;;;;41.00;32.15;;;9.90;99.90;;;;;;7301076;32;20529;-55
2023/04/17 07:27:25;;;;;;;41.33;31.40;;;9.90;99.90;;;;;;7304325;32;20275;-56
2023/04/17 07:31:27;;;;;;;44.60;32.75;;;9.90;99.90;;;;;;7303049;32;20092;-56
2023/04/17 07:35:29;;;;;;;42.05;32.47;;;10.00;99.90;;;;;;7315553;32;20114;-56
2023/04/17 07:39:31;;;;;;;37.97;28.92;;;10.10;99.90;;;;;;7311257;32;20361;-55
2023/04/17 07:43:32;;;;;;;37.88;29.33;;;10.30;99.90;;;;;;7304036;32;20095;-56
2023/04/17 07:47:34;;;;;;;31.50;25.77;;;10.30;99.90;;;;;;7307511;32;20225;-56
2023/04/17 07:51:37;;;;;;;36.03;26.50;;;10.30;99.90;;;;;;7300834;32;20503;-56
2023/04/17 07:55:38;;;;;;;33.28;27.08;;;10.40;99.90;;;;;;7309522;32;20563;-55
2023/04/17 07:59:40;;;;;;;35.08;26.00;;;10.50;99.90;;;;;;7294474;32;20183;-56
2023/04/17 08:03:43;;;;;;;34.58;26.85;;;10.60;99.90;;;;;;7303502;32;20215;-56
2023/04/17 08:07:45;;;;;;;32.38;25.20;;;10.70;99.90;;;;;;7310382;32;20099;-55
2023/04/17 08:11:47;;;;;;;31.27;25.88;;;10.60;99.90;;;;;;7306395;32;20230;-56
2023/04/17 08:15:58;;;;;;;33.58;24.90;;;10.70;99.90;;;;;;7300096;32;20091;-57
2023/04/17 08:20:10;;;;;;;32.08;25.45;;;10.70;99.90;;;;;;7301196;32;20155;-56
2023/04/17 08:24:12;;;;;;;36.67;25.62;;;10.40;99.90;;;;;;7301112;32;20108;-56
2023/04/17 08:28:14;;;;;;;33.70;26.65;;;10.40;99.90;;;;;;7309360;32;20139;-55
2023/04/17 08:32:16;;;;;;;33.25;25.80;;;10.40;99.90;;;;;;7301166;32;20103;-56
2023/04/17 08:36:18;;;;;;;35.50;27.23;;;10.80;99.90;;;;;;7301827;32;20100;-56
2023/04/17 08:40:22;;;;;;;34.70;25.48;;;11.40;99.90;;;;;;7305239;32;20261;-57
2023/04/17 08:44:24;;;;;;;30.70;23.48;;;11.70;99.90;;;;;;7296188;32;20544;-57
2023/04/17 08:48:26;;;;;;;29.05;24.25;;;11.60;99.90;;;;;;7309664;32;20333;-57
2023/04/17 08:52:27;;;;;;;26.75;22.27;;;11.90;99.90;;;;;;7310799;32;20149;-59
2023/04/17 08:56:29;;;;;;;30.67;21.92;;;11.80;99.90;;;;;;7319668;32;20127;-57
2023/04/17 09:00:34;;;;;;;28.62;23.70;;;11.90;99.90;;;;;;7304018;32;20138;-59
2023/04/17 09:04:45;;;;;;;30.58;22.92;;;12.00;99.90;;;;;;7294256;32;20312;-56
2023/04/17 09:09:01;;;;;;;27.87;22.60;;;12.20;99.90;;;;;;7299043;32;20134;-56
2023/04/17 09:13:03;;;;;;;24.25;20.73;;;12.60;99.90;;;;;;7303817;32;20200;-58
2023/04/17 09:17:05;;;;;;;24.83;21.10;;;12.90;99.90;;;;;;7301865;32;20172;-57
2023/04/17 09:21:08;;;;;;;28.52;21.25;;;13.40;99.90;;;;;;7292865;32;20126;-57
2023/04/17 09:25:19;;;;;;;23.05;20.42;;;13.40;99.90;;;;;;7292763;32;20142;-57
2023/04/17 09:29:21;;;;;;;23.40;18.20;;;13.50;99.90;;;;;;7292401;32;20219;-57
2023/04/17 09:33:23;;;;;;;21.23;18.12;;;13.60;99.90;;;;;;7297000;32;20206;-58
2023/04/17 09:37:26;;;;;;;21.42;17.45;;;13.50;99.90;;;;;;7305083;32;20221;-58
2023/04/17 09:41:30;;;;;;;19.20;16.52;;;13.70;99.90;;;;;;7292012;32;20183;-59
2023/04/17 09:45:38;;;;;;;18.50;16.23;;;14.00;99.90;;;;;;7308095;32;20123;-57
2023/04/17 09:49:54;;;;;;;21.37;16.90;;;14.40;99.90;;;;;;7298516;32;20323;-57
2023/04/17 09:53:58;;;;;;;22.98;17.37;;;14.30;99.90;;;;;;7302439;32;20108;-57
2023/04/17 09:58:05;;;;;;;19.40;15.65;;;14.20;99.90;;;;;;7303952;32;20475;-59
2023/04/17 10:02:11;;;;;;;24.75;19.25;;;14.70;99.90;;;;;;7304476;32;20104;-58
2023/04/17 10:06:14;;;;;;;19.27;15.47;;;14.50;99.90;;;;;;7309401;32;20494;-59
2023/04/17 10:10:29;;;;;;;18.27;14.95;;;14.20;99.90;;;;;;7306358;32;20129;-58
2023/04/17 10:14:35;;;;;;;18.17;13.43;;;14.30;99.90;;;;;;7297823;32;20123;-58
2023/04/17 10:18:37;;;;;;;21.15;13.55;;;14.60;99.90;;;;;;7306674;32;20202;-58
2023/04/17 10:22:40;;;;;;;16.60;13.35;;;14.60;99.90;;;;;;7297997;32;20138;-58
2023/04/17 10:26:42;;;;;;;17.15;13.82;;;14.80;99.90;;;;;;7304220;32;20132;-57
2023/04/17 10:30:53;;;;;;;15.13;12.65;;;14.60;99.90;;;;;;7306580;32;20219;-59
2023/04/17 10:34:58;;;;;;;16.52;13.05;;;15.60;99.90;;;;;;7304158;32;20195;-58
2023/04/17 10:39:10;;;;;;;14.77;11.68;;;15.70;99.90;;;;;;7312099;32;20175;-57
2023/04/17 10:43:14;;;;;;;15.30;11.73;;;15.00;99.90;;;;;;7309946;32;20127;-58
2023/04/17 10:47:19;;;;;;;15.25;11.77;;;15.30;99.90;;;;;;7305766;32;20141;-58
2023/04/17 10:51:25;;;;;;;14.32;12.00;;;15.70;99.90;;;;;;7302839;32;20803;-59
2023/04/17 10:55:27;;;;;;;15.55;11.60;;;15.20;99.90;;;;;;7324019;32;20282;-58
2023/04/17 10:59:29;;;;;;;16.98;11.40;;;14.90;99.90;;;;;;7301861;32;20491;-57
2023/04/17 11:03:34;;;;;;;13.15;10.23;;;14.70;99.90;;;;;;7304920;32;20094;-57
2023/04/17 11:07:36;;;;;;;15.95;11.40;;;15.00;99.90;;;;;;7305358;32;20475;-56
2023/04/17 11:11:39;;;;;;;12.55;9.50;;;14.60;99.90;;;;;;7302295;32;20293;-58
2023/04/17 11:15:45;;;;;;;12.40;9.93;;;15.70;99.90;;;;;;7303115;32;20207;-58
2023/04/17 11:19:48;;;;;;;17.00;9.30;;;15.80;99.90;;;;;;7311441;32;20652;-58
2023/04/17 11:23:51;;;;;;;11.55;9.40;;;16.40;99.90;;;;;;7305843;32;20223;-58
2023/04/17 11:27:57;;;;;;;10.60;8.93;;;17.10;99.90;;;;;;7300982;32;20161;-58
2023/04/17 11:32:00;;;;;;;9.87;8.20;;;17.30;99.90;;;;;;7305898;32;20176;-56
2023/04/17 11:36:03;;;;;;;8.55;6.87;;;17.40;99.90;;;;;;7309113;32;20131;-61
2023/04/17 11:40:09;;;;;;;10.23;7.05;;;16.50;97.90;;;;;;7310030;32;20267;-62
2023/04/17 11:44:15;;;;;;;10.55;7.00;;;16.30;98.70;;;;;;7309155;32;20707;-62
2023/04/17 11:48:25;;;;;;;11.43;7.57;;;16.20;97.30;;;;;;7307536;32;20116;-57
2023/04/17 11:52:27;;;;;;;10.07;7.30;;;16.40;95.80;;;;;;7305556;32;20214;-57
2023/04/17 11:56:29;;;;;;;11.30;6.40;;;16.40;99.60;;;;;;7306326;32;20100;-57
2023/04/17 12:00:32;;;;;;;9.48;6.97;;;16.50;96.60;;;;;;7301168;32;20609;-56
2023/04/17 12:04:36;;;;;;;8.98;6.25;;;16.20;97.40;;;;;;7308621;32;20113;-57
2023/04/17 12:08:48;;;;;;;6.93;5.82;;;15.50;99.90;;;;;;7304701;32;20128;-57
2023/04/17 12:12:51;;;;;;;8.52;5.90;;;16.20;99.50;;;;;;7307634;32;20418;-58
2023/04/17 12:16:52;;;;;;;13.02;6.90;;;16.20;99.90;;;;;;7304273;32;20306;-57
2023/04/17 12:20:54;;;;;;;10.07;7.45;;;15.50;99.50;;;;;;7298463;32;20147;-57
2023/04/17 12:24:56;;;;;;;11.48;8.20;;;15.30;99.90;;;;;;7301711;32;20116;-57
2023/04/17 12:28:58;;;;;;;9.15;7.30;;;16.00;99.90;;;;;;7307181;32;20851;-57
2023/04/17 12:33:00;;;;;;;9.20;6.70;;;16.60;94.90;;;;;;7303143;32;20209;-57
2023/04/17 12:37:02;;;;;;;8.68;6.22;;;17.20;94.90;;;;;;7308344;32;20934;-58
2023/04/17 12:41:03;;;;;;;8.25;6.35;;;18.80;93.40;;;;;;7302702;32;20242;-57
2023/04/17 12:45:06;;;;;;;12.70;6.93;;;18.70;87.60;;;;;;7310749;32;20262;-56
2023/04/17 12:49:07;;;;;;;8.50;6.78;;;18.40;87.10;;;;;;7304401;32;20096;-57
2023/04/17 12:53:12;;;;;;;8.90;6.90;;;18.40;89.20;;;;;;7300513;32;20128;-57
2023/04/17 12:57:14;;;;;;;7.68;6.47;;;17.70;89.10;;;;;;7301475;32;20104;-58
2023/04/17 13:01:16;;;;;;;8.23;5.80;;;18.20;87.20;;;;;;7305554;32;20803;-58
2023/04/17 13:05:18;;;;;;;9.95;6.68;;;18.30;85.10;;;;;;7305742;32;20507;-57
2023/04/17 13:09:19;;;;;;;8.35;6.40;;;17.50;87.60;;;;;;7298847;32;20103;-57
2023/04/17 13:13:21;;;;;;;10.07;7.43;;;17.20;90.20;;;;;;7306666;32;20377;-57
2023/04/17 13:17:24;;;;;;;11.25;6.62;;;17.00;88.80;;;;;;7297873;32;20128;-58
2023/04/17 13:21:25;;;;;;;9.70;6.85;;;16.40;92.20;;;;;;7306581;32;20243;-59
2023/04/17 13:25:30;;;;;;;8.30;7.35;;;16.30;91.70;;;;;;7305380;32;20251;-57
2023/04/17 13:29:32;;;;;;;9.13;7.43;;;15.60;91.80;;;;;;7309261;32;20504;-58
2023/04/17 13:33:34;;;;;;;9.10;6.93;;;15.40;93.10;;;;;;7304192;32;20189;-58
2023/04/17 13:37:35;;;;;;;9.38;7.68;;;15.60;94.80;;;;;;7305080;32;20146;-58
2023/04/17 13:41:37;;;;;;;10.20;7.80;;;16.80;92.80;;;;;;7308864;32;20225;-58
2023/04/17 13:45:39;;;;;;;10.63;7.65;;;17.30;92.30;;;;;;7302719;32;20116;-58
2023/04/17 13:49:41;;;;;;;11.75;9.18;;;18.00;90.50;;;;;;7295848;32;20104;-58
2023/04/17 13:53:42;;;;;;;9.02;7.70;;;17.40;90.60;;;;;;7297536;32;20202;-58
2023/04/17 13:57:44;;;;;;;9.73;8.20;;;16.40;92.00;;;;;;7299733;32;20122;-57
2023/04/17 14:01:46;;;;;;;9.85;8.00;;;15.90;94.00;;;;;;7307213;32;20781;-58
2023/04/17 14:05:49;;;;;;;9.32;7.78;;;17.40;91.90;;;;;;7306124;32;20142;-58
2023/04/17 14:09:51;;;;;;;11.95;8.23;;;18.00;90.30;;;;;;7324908;32;20111;-58
2023/04/17 14:13:53;;;;;;;10.40;7.45;;;18.30;86.90;;;;;;7306308;32;20630;-57
2023/04/17 14:17:55;;;;;;;12.90;8.77;;;18.20;82.80;;;;;;7308906;32;20111;-58
2023/04/17 14:21:57;;;;;;;12.40;8.10;;;17.60;83.90;;;;;;7316941;32;20598;-57
2023/04/17 14:25:59;;;;;;;13.90;8.35;;;18.00;87.80;;;;;;7291737;32;20717;-58
2023/04/17 14:30:01;;;;;;;11.02;8.50;;;18.00;85.80;;;;;;7297560;32;22445;-58
2023/04/17 14:34:02;;;;;;;13.45;8.80;;;17.20;85.70;;;;;;7305370;32;20204;-57
2023/04/17 14:38:05;;;;;;;11.02;8.82;;;16.30;87.30;;;;;;7314681;32;20233;-58
2023/04/17 14:42:06;;;;;;;11.48;8.23;;;16.20;90.00;;;;;;7307169;32;20183;-57
2023/04/17 14:46:08;;;;;;;11.68;8.65;;;16.60;87.80;;;;;;7300450;32;20095;-57
2023/04/17 14:50:10;;;;;;;10.77;8.23;;;16.30;86.10;;;;;;7306754;32;20128;-58
2023/04/17 14:54:12;;;;;;;11.25;8.20;;;16.40;88.90;;;;;;7304069;32;20681;-58
2023/04/17 14:58:13;;;;;;;10.45;8.05;;;16.50;87.10;;;;;;7307249;32;20514;-57
2023/04/17 15:02:15;;;;;;;10.90;7.80;;;15.90;88.10;;;;;;7307845;32;20103;-57
2023/04/17 15:06:17;;;;;;;13.65;9.00;;;15.50;88.00;;;;;;7304850;32;20205;-57
2023/04/17 15:10:19;;;;;;;13.13;8.45;;;15.30;90.20;;;;;;7314206;32;20195;-57
2023/04/17 15:14:21;;;;;;;10.48;7.90;;;15.30;89.70;;;;;;7316330;32;20108;-58
2023/04/17 15:18:23;;;;;;;12.52;8.00;;;15.50;91.30;;;;;;7312223;32;20259;-58
2023/04/17 15:22:25;;;;;;;10.90;7.85;;;15.50;90.50;;;;;;7321252;32;20763;-57
2023/04/17 15:26:26;;;;;;;11.85;7.70;;;15.50;88.70;;;;;;7310978;32;20552;-58
2023/04/17 15:30:28;;;;;;;12.32;7.47;;;15.20;90.70;;;;;;7311387;32;20505;-57
2023/04/17 15:34:31;;;;;;;13.48;7.87;;;15.10;90.80;;;;;;7311776;32;20104;-59
2023/04/17 15:38:33;;;;;;;10.35;7.05;;;15.50;85.30;;;;;;7328645;32;20174;-57
2023/04/17 15:42:35;;;;;;;11.77;6.65;;;15.40;86.60;;;;;;7304807;32;20475;-58
2023/04/17 15:46:37;;;;;;;11.15;7.25;;;15.20;85.40;;;;;;7310933;32;20195;-57
2023/04/17 15:50:39;;;;;;;10.13;5.65;;;15.00;87.30;;;;;;7299316;32;20441;-57
2023/04/17 15:54:41;;;;;;;9.32;6.47;;;14.90;89.00;;;;;;7304672;32;20122;-57
2023/04/17 15:58:42;;;;;;;9.10;6.70;;;14.80;90.00;;;;;;7305221;32;20092;-57
2023/04/17 16:02:47;;;;;;;11.02;6.62;;;14.80;90.20;;;;;;7298158;32;20150;-58
2023/04/17 16:06:49;;;;;;;12.98;7.28;;;15.00;89.70;;;;;;7300591;32;20671;-57
2023/04/17 16:10:51;;;;;;;8.30;5.93;;;15.10;86.80;;;;;;7299325;32;20235;-58
2023/04/17 16:14:53;;;;;;;12.95;6.20;;;15.20;88.20;;;;;;7314988;32;20173;-57
2023/04/17 16:18:56;;;;;;;11.48;6.82;;;15.30;85.60;;;;;;7310243;32;20125;-57
2023/04/17 16:22:58;;;;;;;10.85;7.12;;;14.90;83.70;;;;;;7300393;32;20208;-57
2023/04/17 16:27:00;;;;;;;10.07;7.35;;;14.60;87.60;;;;;;7305720;32;20148;-57
2023/04/17 16:31:02;;;;;;;9.68;6.55;;;14.60;86.80;;;;;;7308609;32;20100;-57
2023/04/17 16:35:04;;;;;;;9.98;6.85;;;14.70;87.60;;;;;;7301863;32;20133;-57
2023/04/17 16:39:07;;;;;;;12.50;7.15;;;14.50;88.20;;;;;;7304651;32;20107;-58
2023/04/17 16:43:09;;;;;;;11.20;6.72;;;14.60;87.60;;;;;;7303683;32;20103;-58
2023/04/17 16:47:11;;;;;;;10.50;6.57;;;14.60;87.60;;;;;;7306176;32;20127;-55
2023/04/17 16:51:15;;;;;;;12.35;8.60;;;14.50;87.40;;;;;;7297551;32;20210;-57
2023/04/17 16:55:16;;;;;;;10.68;6.78;;;14.40;89.70;;;;;;7307137;32;20206;-57
2023/04/17 16:59:18;;;;;;;9.35;6.40;;;14.40;87.20;;;;;;7291031;32;20100;-57
2023/04/17 17:03:20;;;;;;;8.48;6.22;;;14.40;88.40;;;;;;7305684;32;20283;-57
2023/04/17 17:07:22;;;;;;;14.32;7.20;;;14.40;89.80;;;;;;7300844;32;20139;-58
2023/04/17 17:11:24;;;;;;;9.40;6.70;;;14.30;89.10;;;;;;7305039;32;20246;-57
2023/04/17 17:15:25;;;;;;;11.35;7.35;;;14.20;89.40;;;;;;7305042;32;20246;-57
2023/04/17 17:19:27;;;;;;;9.75;6.20;;;14.10;88.40;;;;;;7300400;32;20227;-57
2023/04/17 17:23:29;;;;;;;11.80;6.62;;;14.10;90.20;;;;;;7299659;32;20104;-57
2023/04/17 17:27:30;;;;;;;12.57;6.78;;;14.00;90.90;;;;;;7305224;32;20564;-58
2023/04/17 17:31:33;;;;;;;11.02;5.95;;;14.00;89.40;;;;;;7308300;32;20251;-58
2023/04/17 17:35:35;;;;;;;11.35;6.20;;;14.00;90.90;;;;;;7303154;32;20108;-57
2023/04/17 17:39:37;;;;;;;9.00;5.90;;;13.90;88.90;;;;;;7303133;32;20525;-58
2023/04/17 17:43:38;;;;;;;9.55;6.28;;;13.80;90.10;;;;;;7305265;32;20240;-57
2023/04/17 17:47:40;;;;;;;7.75;5.80;;;13.80;88.20;;;;;;7307622;32;20353;-57
2023/04/17 17:51:43;;;;;;;12.30;6.50;;;13.60;89.50;;;;;;7300164;32;20096;-57
2023/04/17 17:55:50;;;;;;;11.25;6.32;;;13.60;88.90;;;;;;7304462;32;20482;-58
2023/04/17 17:59:52;;;;;;;13.13;6.72;;;13.50;90.50;;;;;;7294880;32;20214;-58
2023/04/17 18:03:54;;;;;;;9.60;6.25;;;13.30;90.30;;;;;;7300258;32;20120;-58
2023/04/17 18:07:56;;;;;;;10.30;6.45;;;13.20;91.40;;;;;;7305623;32;20580;-57
2023/04/17 18:11:58;;;;;;;11.75;6.55;;;13.00;91.80;;;;;;7314787;32;20233;-58
2023/04/17 18:16:02;;;;;;;8.93;5.65;;;12.90;92.60;;;;;;7310035;32;20103;-58
2023/04/17 18:20:05;;;;;;;8.60;5.85;;;12.80;92.50;;;;;;7306340;32;20195;-57
2023/04/17 18:24:07;;;;;;;10.57;5.70;;;12.60;92.90;;;;;;7297076;32;20123;-57
2023/04/17 18:28:08;;;;;;;8.88;5.20;;;12.40;93.70;;;;;;7304393;32;20116;-57
2023/04/17 18:32:15;;;;;;;7.28;5.62;;;12.30;96.20;;;;;;7298589;32;20107;-57
2023/04/17 18:36:17;;;;;;;10.10;6.78;;;12.10;98.70;;;;;;7305360;32;20123;-57
2023/04/17 18:40:19;;;;;;;13.40;5.90;;;11.80;99.90;;;;;;7299473;32;20099;-57
2023/04/17 18:44:21;;;;;;;9.13;5.55;;;11.70;99.90;;;;;;7310300;32;20156;-56
2023/04/17 18:48:23;;;;;;;9.02;5.60;;;11.50;99.90;;;;;;7301635;32;20554;-56
2023/04/17 18:52:24;;;;;;;12.13;5.70;;;11.30;99.90;;;;;;7305622;32;20190;-55
2023/04/17 18:56:26;;;;;;;10.35;5.57;;;11.10;99.90;;;;;;7316545;32;20241;-56
2023/04/17 19:00:28;;;;;;;11.73;5.55;;;11.00;99.90;;;;;;7304699;32;20320;-56
2023/04/17 19:04:30;;;;;;;8.15;6.20;;;10.80;99.90;;;;;;7309763;32;20122;-56
2023/04/17 19:08:31;;;;;;;13.32;6.28;;;10.70;99.90;;;;;;7309314;32;20154;-56
2023/04/17 19:12:34;;;;;;;8.88;6.32;;;10.60;99.90;;;;;;7301384;32;20104;-55
2023/04/17 19:16:36;;;;;;;7.10;5.60;;;10.40;99.90;;;;;;7306174;32;20903;-56
2023/04/17 19:20:40;;;;;;;8.77;6.37;;;10.20;99.90;;;;;;7308059;32;20146;-57
2023/04/17 19:24:41;;;;;;;12.65;6.75;;;9.90;99.90;;;;;;7301687;32;20261;-56
2023/04/17 19:28:43;;;;;;;11.95;6.22;;;9.80;99.90;;;;;;7315701;32;20545;-56
2023/04/17 19:32:45;;;;;;;8.07;5.70;;;9.50;99.90;;;;;;7300787;32;20175;-56
2023/04/17 19:36:47;;;;;;;13.18;5.85;;;9.30;99.90;;;;;;7298566;32;20808;-56
2023/04/17 19:41:13;;;;;;;11.75;6.40;;;9.10;99.90;;;;;;7311070;32;20255;-55
2023/04/17 19:45:16;;;;;;;7.22;5.55;;;9.00;99.90;;;;;;7300955;32;20136;-55
2023/04/17 19:49:17;;;;;;;13.82;6.00;;;8.80;99.90;;;;;;7310722;32;20594;-55
2023/04/17 19:53:19;;;;;;;9.68;6.50;;;8.80;99.90;;;;;;7314361;32;20249;-56
2023/04/17 19:57:21;;;;;;;11.85;6.22;;;8.70;99.90;;;;;;7303650;32;20112;-55
2023/04/17 20:01:29;;;;;;;11.18;6.82;;;8.60;99.90;;;;;;7317164;32;20221;-56
2023/04/17 20:05:31;;;;;;;16.00;10.07;;;8.50;99.90;;;;;;7306117;32;20122;-56
2023/04/17 20:09:33;;;;;;;15.43;7.62;;;8.40;99.90;;;;;;7298710;32;20119;-56
2023/04/17 20:13:34;;;;;;;10.10;6.35;;;8.30;99.90;;;;;;7298378;32;20100;-57
2023/04/17 20:17:36;;;;;;;11.38;7.45;;;8.20;99.90;;;;;;7300031;32;20677;-55
2023/04/17 20:21:38;;;;;;;10.55;7.65;;;8.00;99.90;;;;;;7304820;32;20308;-55
2023/04/17 20:25:39;;;;;;;12.45;7.82;;;7.90;99.90;;;;;;7305581;32;20258;-55
2023/04/17 20:29:41;;;;;;;13.88;6.82;;;7.90;99.90;;;;;;7302524;32;20179;-56
2023/04/17 20:33:43;;;;;;;12.43;7.78;;;7.70;99.90;;;;;;7303924;32;20099;-54
2023/04/17 20:37:44;;;;;;;22.30;8.05;;;7.70;99.90;;;;;;7300377;32;20118;-57
2023/04/17 20:41:46;;;;;;;12.60;7.20;;;7.50;99.90;;;;;;7306073;32;20108;-57
2023/04/17 20:45:48;;;;;;;13.27;7.30;;;7.40;99.90;;;;;;7305126;32;20107;-58
2023/04/17 20:49:50;;;;;;;11.93;7.68;;;7.40;99.90;;;;;;7302155;32;20100;-55